หน้าหลัก
METAR-TAF:

METAR-TAF

ท่าอากาศยาน :

Odiham, อังกฤษ

ละติจูด: 51-14N, ลองจิจูด: 000-57W, ความสูง: 123 ม.

การสังเกตสภาพอากาศปัจจุบัน

รายงานได้ทำขึ้นเมื่อ 37 นาทีที่แล้ว ณ เวลา 02:20 UTC
ลม 2 นอตจากตะวันตก/ตะวันตกเฉียงเหนือ
อุณหภูมิ 15°C
ความชื้น 82%
ความกดอากาศ 1018 hPa
ทัศนวิสัย 10 กม. หรือมากกว่า

METAR: EGVO 190220Z AUTO 30002KT 9999 FEW140/// 15/12 Q1018

เวลา: 03:57 (02:57 UTC)

การพยากรณ์

รายงานได้ทำขึ้นเมื่อ 4 ชั่วโมงและ 31 นาทีที่แล้ว ณ เวลา 22:26 UTC
การพยากรณ์มีผลตั้งแต่วันที่ 19 ณ เวลา 00 UTC จนถึงวันที่ 19 ณ เวลา 12 UTC
ลม 7 นอตจากใต้/ตะวันออกเฉียงใต้
ทัศนวิสัย 10 กม. หรือมากกว่า
ไม่มีเมฆต่ำกว่า 1,500 ม. และไม่มีเมฆคิวมูโลนิมบัส

TAF: EGVO 182226Z 1900/1912 16007KT CAVOK

สังเกตการณ์สภาพอากาศและพยากรณ์อากาศของสนามบินมากกว่า 4000 แห่ง (รายงาน METAR และ TAF).

สถานีที่ดูได้จะแสดงไว้ด้วยจุดสีเหลืองและสีแดงบนแผนที่.

เลื่อนเมาส์ไปเหนือจุดเพื่อดูชื่อสถานี.

แล้วคลิกเพื่อดูสังเกตการณ์และการพยากรณ์สภาพอากาศ.

ในการเปลี่ยนแผนที่: คลิกที่ปุ่มสีเขียวที่มีกากบาทสีดำเพื่อซูมเข้า; ที่ปุ่มสีเขียวที่มีขีดเพื่อซูมออก; หรือที่ลูกศรสีเขียวเพื่อไปยังแผนที่ที่อยู่ติดกัน.


METAR-TAF: